Time;durP1;ratioP1;P1;durP2;ratioP2;P2;SDS_P1;SDS_P2;PMS_P1;PMS_P2;Temp;Humidity;BMP_temperature;BMP_pressure;BME280_temperature;BME280_humidity;BME280_pressure;Samples;Min_cycle;Max_cycle;Signal;HPM_P1;HPM_P2
2021/08/13 00:00:58;;;;;;;11.07;9.87;;;;;;;;;;4994261;28;20382;-80
2021/08/13 00:03:24;;;;;;;12.13;10.70;;;;;;;;;;4994009;28;20390;-79
2021/08/13 00:05:50;;;;;;;12.87;9.60;;;;;;;;;;4993970;28;20402;-79
2021/08/13 00:08:16;;;;;;;16.13;9.80;;;;;;;;;;4994487;28;20407;-78
2021/08/13 00:10:42;;;;;;;10.03;8.57;;;;;;;;;;4994849;28;20400;-81
2021/08/13 00:13:08;;;;;;;10.00;9.00;;;;;;;;;;4993740;28;21408;-79
2021/08/13 00:15:34;;;;;;;9.60;8.30;;;;;;;;;;4993814;28;20405;-81
2021/08/13 00:18:00;;;;;;;14.07;9.53;;;;;;;;;;4993809;28;21003;-80
2021/08/13 00:20:26;;;;;;;12.17;9.43;;;;;;;;;;4993856;28;20473;-78
2021/08/13 00:22:52;;;;;;;14.50;8.60;;;;;;;;;;4993670;28;20510;-81
2021/08/13 00:25:19;;;;;;;13.60;10.07;;;;;;;;;;4993463;28;20445;-79
2021/08/13 00:27:45;;;;;;;15.30;9.10;;;;;;;;;;4993842;28;20483;-81
2021/08/13 00:30:11;;;;;;;12.37;10.20;;;;;;;;;;4993591;28;20403;-80
2021/08/13 00:32:38;;;;;;;14.27;10.90;;;;;;;;;;4993635;28;20389;-81
2021/08/13 00:35:04;;;;;;;11.50;9.97;;;;;;;;;;4993419;28;20405;-80
2021/08/13 00:37:31;;;;;;;12.00;9.33;;;;;;;;;;4993681;28;20920;-79
2021/08/13 00:39:57;;;;;;;11.07;9.30;;;;;;;;;;4993585;28;20425;-79
2021/08/13 00:42:23;;;;;;;16.33;10.40;;;;;;;;;;4993729;28;20486;-80
2021/08/13 00:44:49;;;;;;;11.17;9.27;;;;;;;;;;4996594;28;20490;-78
2021/08/13 00:47:15;;;;;;;13.17;11.67;;;;;;;;;;4997650;28;20476;-82
2021/08/13 00:49:41;;;;;;;14.63;11.30;;;;;;;;;;4997783;28;20962;-81
2021/08/13 00:52:07;;;;;;;15.97;10.70;;;;;;;;;;4997623;28;20758;-81
2021/08/13 00:54:33;;;;;;;12.33;10.93;;;;;;;;;;4997583;28;20422;-77
2021/08/13 00:56:59;;;;;;;13.27;10.57;;;;;;;;;;4997825;28;20898;-77
2021/08/13 00:59:25;;;;;;;14.30;10.20;;;;;;;;;;4998124;28;20412;-80
2021/08/13 01:01:51;;;;;;;12.50;11.17;;;;;;;;;;4997335;28;20407;-81
2021/08/13 01:04:18;;;;;;;16.67;11.37;;;;;;;;;;4996666;28;20448;-81
2021/08/13 01:06:43;;;;;;;12.50;10.50;;;;;;;;;;4997210;28;20381;-79
2021/08/13 01:09:10;;;;;;;16.97;12.07;;;;;;;;;;4997447;28;20493;-81
2021/08/13 01:11:36;;;;;;;17.07;11.73;;;;;;;;;;4997132;28;20407;-80
2021/08/13 01:14:10;;;;;;;12.63;11.10;;;;;;;;;;4996750;28;20936;-80
2021/08/13 01:16:38;;;;;;;13.10;11.67;;;;;;;;;;4996955;28;20442;-80
2021/08/13 01:19:20;;;;;;;16.43;12.60;;;;;;;;;;4997000;28;20394;-81
2021/08/13 01:21:52;;;;;;;14.07;12.63;;;;;;;;;;4997136;28;20859;-79
2021/08/13 01:24:22;;;;;;;13.40;11.77;;;;;;;;;;4996291;28;20466;-81
2021/08/13 01:26:51;;;;;;;15.47;11.33;;;;;;;;;;4996746;28;20746;-79
2021/08/13 01:29:20;;;;;;;16.57;13.60;;;;;;;;;;4996815;28;20477;-79
2021/08/13 01:32:01;;;;;;;15.60;12.87;;;;;;;;;;4996881;28;20460;-81
2021/08/13 01:34:28;;;;;;;17.77;11.97;;;;;;;;;;4996200;28;20487;-78
2021/08/13 01:36:56;;;;;;;17.57;13.03;;;;;;;;;;4995424;28;20904;-79
2021/08/13 01:39:23;;;;;;;20.73;12.73;;;;;;;;;;4996711;28;20875;-81
2021/08/13 01:41:49;;;;;;;21.23;14.10;;;;;;;;;;4996779;28;20427;-81
2021/08/13 01:44:15;;;;;;;15.73;12.50;;;;;;;;;;4996323;28;20441;-79
2021/08/13 01:46:43;;;;;;;19.67;13.90;;;;;;;;;;4996474;28;20428;-82
2021/08/13 01:49:10;;;;;;;13.97;12.57;;;;;;;;;;4996479;28;20393;-79
2021/08/13 01:51:37;;;;;;;14.83;12.10;;;;;;;;;;4996446;28;20744;-78
2021/08/13 01:54:04;;;;;;;15.07;13.20;;;;;;;;;;4994359;28;20974;-81
2021/08/13 01:56:30;;;;;;;15.73;12.53;;;;;;;;;;4996230;28;20903;-79
2021/08/13 01:58:56;;;;;;;13.77;12.13;;;;;;;;;;4996239;28;20457;-80
2021/08/13 02:01:23;;;;;;;17.63;13.10;;;;;;;;;;4996494;28;20381;-80
2021/08/13 02:03:49;;;;;;;16.90;12.07;;;;;;;;;;4996031;28;20521;-81
2021/08/13 02:06:16;;;;;;;14.83;12.33;;;;;;;;;;4996334;28;20434;-80
2021/08/13 02:08:42;;;;;;;14.80;12.43;;;;;;;;;;4996131;28;20382;-81
2021/08/13 02:11:09;;;;;;;15.37;13.27;;;;;;;;;;4996089;28;20385;-80
2021/08/13 02:13:36;;;;;;;15.37;12.13;;;;;;;;;;4995820;28;20467;-78
2021/08/13 02:16:08;;;;;;;13.93;12.50;;;;;;;;;;4995934;28;20431;-80
2021/08/13 02:18:35;;;;;;;21.73;12.87;;;;;;;;;;4995938;28;20866;-81
2021/08/13 02:21:04;;;;;;;18.73;11.57;;;;;;;;;;4995784;28;20756;-79
2021/08/13 02:23:30;;;;;;;10.77;9.63;;;;;;;;;;4995378;28;20434;-79
2021/08/13 02:25:57;;;;;;;12.60;10.40;;;;;;;;;;4995735;28;20450;-81
2021/08/13 02:28:23;;;;;;;11.80;10.60;;;;;;;;;;4995719;28;20390;-78
2021/08/13 02:30:49;;;;;;;14.63;11.60;;;;;;;;;;4994266;28;20755;-81
2021/08/13 02:33:15;;;;;;;11.73;9.70;;;;;;;;;;4995343;28;20975;-82
2021/08/13 02:35:44;;;;;;;14.50;11.10;;;;;;;;;;4995496;28;20482;-80
2021/08/13 02:38:11;;;;;;;15.63;11.03;;;;;;;;;;4995550;28;20421;-78
2021/08/13 02:40:40;;;;;;;11.03;9.90;;;;;;;;;;4994246;28;20932;-78
2021/08/13 02:43:16;;;;;;;12.80;11.50;;;;;;;;;;4995137;28;20877;-78
2021/08/13 02:45:45;;;;;;;11.37;9.80;;;;;;;;;;4995285;28;20470;-77
2021/08/13 02:48:11;;;;;;;12.20;9.97;;;;;;;;;;4995350;28;20390;-79
2021/08/13 02:50:38;;;;;;;12.23;9.87;;;;;;;;;;4995414;28;20382;-80
2021/08/13 02:53:06;;;;;;;15.97;9.83;;;;;;;;;;4995105;28;20755;-79
2021/08/13 02:55:37;;;;;;;12.83;9.73;;;;;;;;;;4995103;28;20901;-80
2021/08/13 02:58:04;;;;;;;15.90;10.27;;;;;;;;;;4995283;28;20393;-79
2021/08/13 03:00:31;;;;;;;14.10;9.07;;;;;;;;;;4995182;28;20711;-78
2021/08/13 03:02:59;;;;;;;16.63;11.83;;;;;;;;;;4994744;28;20789;-78
2021/08/13 03:05:25;;;;;;;15.37;10.60;;;;;;;;;;4994509;28;20478;-77
2021/08/13 03:07:52;;;;;;;12.57;10.07;;;;;;;;;;4994581;28;20885;-79
2021/08/13 03:10:18;;;;;;;11.10;9.63;;;;;;;;;;4995040;28;20450;-77
2021/08/13 03:12:45;;;;;;;13.43;10.20;;;;;;;;;;4994539;28;20473;-78
2021/08/13 03:15:11;;;;;;;18.27;10.77;;;;;;;;;;4994616;28;20863;-79
2021/08/13 03:17:38;;;;;;;20.10;12.27;;;;;;;;;;4994886;28;20385;-78
2021/08/13 03:20:04;;;;;;;12.13;10.00;;;;;;;;;;4994819;28;20440;-78
2021/08/13 03:22:30;;;;;;;12.13;10.83;;;;;;;;;;4994632;28;20425;-77
2021/08/13 03:24:57;;;;;;;13.97;10.87;;;;;;;;;;4994433;28;20482;-77
2021/08/13 03:27:24;;;;;;;18.50;10.67;;;;;;;;;;4994348;28;20943;-80
2021/08/13 03:29:50;;;;;;;14.77;11.17;;;;;;;;;;4993244;28;20429;-78
2021/08/13 03:32:18;;;;;;;14.93;11.30;;;;;;;;;;4994666;28;20418;-78
2021/08/13 03:34:44;;;;;;;14.10;10.93;;;;;;;;;;4994100;28;20409;-81
2021/08/13 03:37:10;;;;;;;9.97;8.90;;;;;;;;;;4994441;28;20510;-77
2021/08/13 03:39:36;;;;;;;13.03;9.80;;;;;;;;;;4994319;28;20393;-80
2021/08/13 03:42:02;;;;;;;12.70;10.20;;;;;;;;;;4993201;28;20485;-80
2021/08/13 03:44:28;;;;;;;16.00;11.60;;;;;;;;;;4993817;28;20443;-80
2021/08/13 03:46:54;;;;;;;13.70;10.40;;;;;;;;;;4994465;28;20509;-80
2021/08/13 03:49:21;;;;;;;13.20;9.70;;;;;;;;;;4994353;28;20386;-81
2021/08/13 03:51:47;;;;;;;18.13;10.27;;;;;;;;;;4994167;28;20446;-77
2021/08/13 03:54:13;;;;;;;14.77;10.33;;;;;;;;;;4993849;28;20389;-82
2021/08/13 03:56:39;;;;;;;12.00;10.53;;;;;;;;;;4994062;28;20434;-78
2021/08/13 03:59:05;;;;;;;11.33;10.00;;;;;;;;;;4994068;28;20389;-80
2021/08/13 04:01:31;;;;;;;15.60;11.70;;;;;;;;;;4993958;28;20911;-79
2021/08/13 04:03:59;;;;;;;11.10;10.00;;;;;;;;;;4993644;28;20458;-77
2021/08/13 04:06:25;;;;;;;16.50;10.70;;;;;;;;;;4993026;28;20469;-79
2021/08/13 04:08:51;;;;;;;12.47;10.13;;;;;;;;;;4993906;28;20439;-79
2021/08/13 04:11:18;;;;;;;14.53;10.53;;;;;;;;;;4993862;28;20452;-79
2021/08/13 04:13:44;;;;;;;16.83;10.83;;;;;;;;;;4993444;28;20775;-80
2021/08/13 04:16:10;;;;;;;16.13;12.03;;;;;;;;;;4992785;28;20405;-77
2021/08/13 04:18:36;;;;;;;16.13;12.07;;;;;;;;;;4993796;28;20397;-80
2021/08/13 04:21:02;;;;;;;13.33;10.77;;;;;;;;;;4993833;28;20900;-78
2021/08/13 04:23:28;;;;;;;14.27;10.87;;;;;;;;;;4991939;28;20408;-78
2021/08/13 04:25:54;;;;;;;18.23;12.70;;;;;;;;;;4993444;28;20462;-80
2021/08/13 04:28:20;;;;;;;14.67;10.47;;;;;;;;;;4993732;28;20418;-82
2021/08/13 04:30:46;;;;;;;13.33;11.43;;;;;;;;;;4993720;28;20382;-78
2021/08/13 04:33:14;;;;;;;15.13;12.00;;;;;;;;;;4993409;28;20490;-80
2021/08/13 04:35:40;;;;;;;16.73;11.47;;;;;;;;;;4992144;28;20887;-80
2021/08/13 04:38:06;;;;;;;13.57;11.50;;;;;;;;;;4993680;28;20462;-78
2021/08/13 04:40:33;;;;;;;15.83;12.00;;;;;;;;;;4992429;28;20449;-79
2021/08/13 04:42:59;;;;;;;12.43;11.10;;;;;;;;;;4993365;28;20401;-76
2021/08/13 04:45:24;;;;;;;15.00;11.83;;;;;;;;;;4993420;28;20474;-78
2021/08/13 04:47:50;;;;;;;13.40;11.40;;;;;;;;;;4993294;28;20469;-77
2021/08/13 04:50:16;;;;;;;11.57;10.37;;;;;;;;;;4993439;28;20432;-80
2021/08/13 04:52:43;;;;;;;11.83;10.63;;;;;;;;;;4993384;28;20446;-77
2021/08/13 04:55:10;;;;;;;19.67;11.47;;;;;;;;;;4993172;28;20501;-80
2021/08/13 04:57:36;;;;;;;13.60;10.27;;;;;;;;;;4992899;28;20426;-80
2021/08/13 05:00:02;;;;;;;12.37;10.90;;;;;;;;;;4992880;28;20389;-80
2021/08/13 05:02:29;;;;;;;15.90;12.43;;;;;;;;;;4993278;28;20480;-78
2021/08/13 05:05:01;;;;;;;12.50;11.20;;;;;;;;;;4993138;28;20541;-80
2021/08/13 05:07:31;;;;;;;12.40;11.20;;;;;;;;;;4993470;28;20505;-81
2021/08/13 05:09:57;;;;;;;15.80;12.40;;;;;;;;;;4993394;28;20477;-81
2021/08/13 05:12:23;;;;;;;14.27;11.73;;;;;;;;;;4993137;28;21043;-77
2021/08/13 05:14:49;;;;;;;13.67;12.33;;;;;;;;;;4992754;28;20504;-81
2021/08/13 05:17:15;;;;;;;16.30;10.77;;;;;;;;;;4993357;28;20771;-81
2021/08/13 05:19:41;;;;;;;14.50;11.10;;;;;;;;;;4993344;28;20425;-80
2021/08/13 05:22:09;;;;;;;13.27;11.20;;;;;;;;;;4993194;28;20468;-80
2021/08/13 05:24:35;;;;;;;13.70;12.07;;;;;;;;;;4992680;28;20581;-80
2021/08/13 05:27:01;;;;;;;13.03;11.53;;;;;;;;;;4993183;28;20513;-77
2021/08/13 05:29:27;;;;;;;14.60;11.60;;;;;;;;;;4994128;28;20544;-80
2021/08/13 05:31:53;;;;;;;12.80;11.40;;;;;;;;;;4996752;28;20449;-81
2021/08/13 05:34:19;;;;;;;12.27;10.97;;;;;;;;;;4996076;28;20414;-78
2021/08/13 05:36:45;;;;;;;13.93;10.60;;;;;;;;;;4996633;28;20490;-78
2021/08/13 05:39:11;;;;;;;14.67;10.17;;;;;;;;;;4996645;28;20389;-77
2021/08/13 05:41:37;;;;;;;12.47;10.67;;;;;;;;;;4996585;28;21008;-77
2021/08/13 05:44:03;;;;;;;20.10;11.10;;;;;;;;;;4978891;28;20537;-79
2021/08/13 05:46:29;;;;;;;12.47;10.67;;;;;;;;;;4996171;28;20534;-78
2021/08/13 05:48:57;;;;;;;12.23;11.03;;;;;;;;;;4996854;28;20499;-78
2021/08/13 05:51:23;;;;;;;16.67;10.33;;;;;;;;;;4996559;28;20800;-79
2021/08/13 05:53:49;;;;;;;18.10;11.33;;;;;;;;;;4996174;28;20411;-78
2021/08/13 05:56:15;;;;;;;12.57;10.67;;;;;;;;;;4996242;28;20899;-77
2021/08/13 05:58:41;;;;;;;14.80;10.87;;;;;;;;;;4996100;28;20393;-77
2021/08/13 06:01:07;;;;;;;16.60;11.70;;;;;;;;;;4995962;28;20511;-78
2021/08/13 06:03:33;;;;;;;13.30;11.07;;;;;;;;;;4995754;28;20405;-77
2021/08/13 06:05:59;;;;;;;14.07;10.93;;;;;;;;;;4996221;28;20416;-78
2021/08/13 06:08:25;;;;;;;15.23;11.20;;;;;;;;;;4979044;28;20382;-77
2021/08/13 06:10:51;;;;;;;14.80;11.07;;;;;;;;;;4996089;28;20421;-78
2021/08/13 06:13:18;;;;;;;13.07;10.07;;;;;;;;;;4996021;28;20382;-77
2021/08/13 06:15:44;;;;;;;11.47;10.30;;;;;;;;;;4996045;28;20550;-78
2021/08/13 06:18:10;;;;;;;12.70;10.77;;;;;;;;;;4978579;28;20484;-78
2021/08/13 06:20:36;;;;;;;13.50;10.40;;;;;;;;;;4995848;28;20489;-77
2021/08/13 06:23:02;;;;;;;17.23;11.60;;;;;;;;;;4995413;28;20397;-78
2021/08/13 06:25:28;;;;;;;11.70;10.00;;;;;;;;;;4995459;28;20474;-78
2021/08/13 06:27:54;;;;;;;15.30;10.87;;;;;;;;;;4978305;28;20484;-78
2021/08/13 06:30:21;;;;;;;13.63;10.37;;;;;;;;;;4995690;28;20494;-78
2021/08/13 06:32:47;;;;;;;12.50;10.70;;;;;;;;;;4995307;28;20489;-78
2021/08/13 06:35:13;;;;;;;14.30;11.00;;;;;;;;;;4995454;28;20478;-78
2021/08/13 06:37:43;;;;;;;15.10;10.70;;;;;;;;;;4995423;28;20429;-77
2021/08/13 06:40:10;;;;;;;12.10;10.33;;;;;;;;;;4995127;28;20760;-76
2021/08/13 06:42:36;;;;;;;17.60;11.50;;;;;;;;;;4994629;28;20423;-77
2021/08/13 06:45:01;;;;;;;12.53;10.37;;;;;;;;;;4995020;28;20539;-77
2021/08/13 06:47:27;;;;;;;16.30;11.67;;;;;;;;;;4977835;28;20408;-78
2021/08/13 06:49:53;;;;;;;19.07;10.50;;;;;;;;;;4995350;28;20454;-80
2021/08/13 06:52:19;;;;;;;17.07;11.73;;;;;;;;;;4995273;28;20385;-79
2021/08/13 06:54:45;;;;;;;19.50;11.53;;;;;;;;;;4977363;28;20442;-80
2021/08/13 06:57:11;;;;;;;18.30;11.87;;;;;;;;;;4995209;28;20389;-78
2021/08/13 06:59:37;;;;;;;15.77;11.60;;;;;;;;;;4995072;28;20418;-80
2021/08/13 07:02:03;;;;;;;14.93;10.60;;;;;;;;;;4995215;28;20405;-79
2021/08/13 07:04:29;;;;;;;15.47;11.27;;;;;;;;;;4977307;28;20482;-80
2021/08/13 07:06:55;;;;;;;17.17;11.23;;;;;;;;;;4994601;28;20411;-79
2021/08/13 07:09:21;;;;;;;19.60;11.17;;;;;;;;;;4995135;28;20729;-79
2021/08/13 07:11:47;;;;;;;17.20;12.67;;;;;;;;;;4994841;28;20833;-79
2021/08/13 07:14:13;;;;;;;17.13;12.67;;;;;;;;;;4994683;28;20415;-79
2021/08/13 07:16:39;;;;;;;24.03;15.93;;;;;;;;;;4977329;28;20449;-79
2021/08/13 07:19:05;;;;;;;27.03;12.50;;;;;;;;;;4994459;28;20454;-79
2021/08/13 07:21:31;;;;;;;21.10;15.33;;;;;;;;;;4994747;28;20398;-80
2021/08/13 07:23:57;;;;;;;25.73;17.57;;;;;;;;;;4994469;28;20495;-79
2021/08/13 07:26:24;;;;;;;23.83;14.63;;;;;;;;;;4994566;28;20429;-79
2021/08/13 07:28:50;;;;;;;19.37;15.13;;;;;;;;;;4977242;28;20419;-78
2021/08/13 07:31:16;;;;;;;20.00;14.83;;;;;;;;;;4994532;28;20716;-79
2021/08/13 07:33:42;;;;;;;20.90;15.13;;;;;;;;;;4994308;28;20473;-79
2021/08/13 07:36:08;;;;;;;24.33;17.00;;;;;;;;;;4977001;28;21087;-79
2021/08/13 07:38:39;;;;;;;30.80;22.90;;;;;;;;;;4994452;28;20553;-79
2021/08/13 07:41:06;;;;;;;39.13;28.40;;;;;;;;;;4994514;28;20421;-80
2021/08/13 07:43:32;;;;;;;33.30;25.20;;;;;;;;;;4994335;28;20425;-79
2021/08/13 07:45:58;;;;;;;36.00;24.67;;;;;;;;;;4994243;28;20439;-80
2021/08/13 07:48:24;;;;;;;40.97;25.53;;;;;;;;;;4994617;28;21019;-78
2021/08/13 07:50:50;;;;;;;33.63;26.57;;;;;;;;;;4994470;28;20522;-80
2021/08/13 07:53:16;;;;;;;34.80;25.90;;;;;;;;;;4993465;28;20902;-80
2021/08/13 07:55:42;;;;;;;32.83;24.73;;;;;;;;;;4994237;28;20472;-80
2021/08/13 07:58:08;;;;;;;30.87;23.73;;;;;;;;;;4994135;28;20549;-78
2021/08/13 08:00:34;;;;;;;40.57;26.20;;;;;;;;;;4994132;28;20414;-79
2021/08/13 08:03:00;;;;;;;34.80;26.90;;;;;;;;;;4993742;28;20400;-80
2021/08/13 08:05:26;;;;;;;33.10;24.43;;;;;;;;;;4993842;28;20561;-79
2021/08/13 08:07:52;;;;;;;29.67;23.70;;;;;;;;;;4993960;28;20449;-79
2021/08/13 08:10:18;;;;;;;33.13;22.73;;;;;;;;;;4993793;28;20401;-80
2021/08/13 08:12:44;;;;;;;31.93;23.20;;;;;;;;;;4993469;28;20476;-82
2021/08/13 08:15:10;;;;;;;33.60;24.80;;;;;;;;;;4993752;28;20638;-79
2021/08/13 08:17:36;;;;;;;30.23;23.27;;;;;;;;;;4993813;28;20415;-79
2021/08/13 08:20:02;;;;;;;28.93;23.13;;;;;;;;;;4976678;28;20505;-80
2021/08/13 08:22:28;;;;;;;29.50;22.43;;;;;;;;;;4993915;28;20411;-80
2021/08/13 08:24:54;;;;;;;28.57;23.00;;;;;;;;;;4993474;28;20842;-80
2021/08/13 08:27:20;;;;;;;35.10;23.30;;;;;;;;;;4993703;28;20398;-80
2021/08/13 08:29:46;;;;;;;32.27;23.43;;;;;;;;;;4993694;28;20411;-79
2021/08/13 08:32:12;;;;;;;27.83;21.33;;;;;;;;;;4993811;28;20417;-79
2021/08/13 08:34:38;;;;;;;26.90;21.50;;;;;;;;;;4959892;28;20443;-79
2021/08/13 08:37:09;;;;;;;29.63;21.30;;;;;;;;;;4993473;28;20419;-80
2021/08/13 08:39:35;;;;;;;24.10;20.33;;;;;;;;;;4993690;28;20407;-79
2021/08/13 08:42:01;;;;;;;26.80;20.27;;;;;;;;;;4993554;28;20436;-80
2021/08/13 08:44:27;;;;;;;28.47;20.00;;;;;;;;;;4993072;28;20868;-80
2021/08/13 08:46:54;;;;;;;26.80;19.30;;;;;;;;;;4993509;28;20411;-79
2021/08/13 08:49:20;;;;;;;25.47;20.30;;;;;;;;;;4993564;28;20423;-79
2021/08/13 08:51:47;;;;;;;25.70;21.00;;;;;;;;;;4993506;28;20410;-80
2021/08/13 08:54:13;;;;;;;28.27;23.37;;;;;;;;;;4993302;28;20930;-80
2021/08/13 08:56:39;;;;;;;29.50;21.47;;;;;;;;;;4993425;28;20439;-80
2021/08/13 08:59:05;;;;;;;29.90;22.73;;;;;;;;;;4993462;28;20789;-79
2021/08/13 09:01:31;;;;;;;26.23;21.73;;;;;;;;;;4993480;28;20436;-79
2021/08/13 09:03:58;;;;;;;27.93;21.23;;;;;;;;;;4993255;28;20958;-80
2021/08/13 09:06:24;;;;;;;29.67;22.37;;;;;;;;;;4997637;28;20404;-80
2021/08/13 09:08:51;;;;;;;24.07;20.60;;;;;;;;;;4997489;28;20446;-80
2021/08/13 09:11:18;;;;;;;21.97;19.10;;;;;;;;;;4997425;28;20409;-80
2021/08/13 09:14:07;;;;;;;19.83;17.53;;;;;;;;;;4996640;28;20501;-80
2021/08/13 09:16:33;;;;;;;27.00;19.83;;;;;;;;;;4996952;28;20511;-80
2021/08/13 09:19:06;;;;;;;20.63;16.77;;;;;;;;;;4997170;28;20489;-80
2021/08/13 09:21:33;;;;;;;18.10;13.43;;;;;;;;;;4997003;28;20381;-80
2021/08/13 09:24:00;;;;;;;14.17;11.47;;;;;;;;;;4996411;28;20481;-80
2021/08/13 09:26:26;;;;;;;13.87;12.40;;;;;;;;;;4996775;28;20536;-81
2021/08/13 09:28:52;;;;;;;14.00;11.77;;;;;;;;;;4996982;28;20506;-80
2021/08/13 09:31:27;;;;;;;13.53;11.40;;;;;;;;;;4996906;28;20489;-80
2021/08/13 09:33:54;;;;;;;14.87;12.33;;;;;;;;;;4996437;28;20410;-80
2021/08/13 09:36:24;;;;;;;14.10;12.67;;;;;;;;;;4996516;28;20469;-79
2021/08/13 09:39:11;;;;;;;18.67;13.90;;;;;;;;;;4996780;28;20402;-80
2021/08/13 09:41:47;;;;;;;15.53;12.80;;;;;;;;;;4996399;28;20441;-80
2021/08/13 09:44:13;;;;;;;12.00;10.10;;;;;;;;;;4996048;28;20512;-79
2021/08/13 09:46:54;;;;;;;12.90;9.90;;;;;;;;;;4996502;28;20431;-80
2021/08/13 09:49:20;;;;;;;10.17;8.30;;;;;;;;;;4996602;28;20403;-79
2021/08/13 09:51:46;;;;;;;9.00;7.37;;;;;;;;;;4996576;28;20411;-79
2021/08/13 09:54:12;;;;;;;9.80;8.30;;;;;;;;;;4995978;28;20415;-79
2021/08/13 09:56:39;;;;;;;8.70;7.17;;;;;;;;;;4978742;28;20450;-79
2021/08/13 09:59:18;;;;;;;7.47;6.77;;;;;;;;;;4996392;28;20419;-79
2021/08/13 10:01:44;;;;;;;7.50;6.80;;;;;;;;;;4996486;28;20403;-80
2021/08/13 10:04:10;;;;;;;9.80;6.40;;;;;;;;;;4996006;28;20454;-79
2021/08/13 10:06:37;;;;;;;8.33;7.03;;;;;;;;;;4996095;28;20431;-79
2021/08/13 10:09:04;;;;;;;8.33;7.10;;;;;;;;;;4996342;28;20398;-80
2021/08/13 10:11:32;;;;;;;7.63;6.93;;;;;;;;;;4996027;28;20414;-79
2021/08/13 10:13:58;;;;;;;8.50;7.60;;;;;;;;;;4995715;28;20443;-80
2021/08/13 10:16:25;;;;;;;7.87;7.07;;;;;;;;;;4995656;28;20471;-80
2021/08/13 10:18:55;;;;;;;8.50;6.60;;;;;;;;;;4996045;28;20538;-80
2021/08/13 10:21:21;;;;;;;7.53;6.17;;;;;;;;;;4996167;28;20438;-79
2021/08/13 10:23:48;;;;;;;6.00;5.50;;;;;;;;;;4995378;28;20415;-79
2021/08/13 10:26:14;;;;;;;7.30;6.50;;;;;;;;;;4978217;28;20455;-80
2021/08/13 10:28:41;;;;;;;9.00;6.27;;;;;;;;;;4995674;28;20525;-79
2021/08/13 10:31:07;;;;;;;7.23;5.77;;;;;;;;;;4995988;28;20413;-79
2021/08/13 10:33:33;;;;;;;5.67;5.13;;;;;;;;;;4995463;28;20465;-79
2021/08/13 10:35:59;;;;;;;5.90;5.03;;;;;;;;;;4995637;28;20427;-80
2021/08/13 10:38:27;;;;;;;8.13;5.77;;;;;;;;;;4995565;28;20411;-80
2021/08/13 10:40:54;;;;;;;6.00;5.10;;;;;;;;;;4995554;28;20506;-80
2021/08/13 10:43:21;;;;;;;5.63;5.10;;;;;;;;;;4995314;28;20411;-79
2021/08/13 10:45:52;;;;;;;6.93;5.30;;;;;;;;;;4995348;28;20470;-79
2021/08/13 10:48:29;;;;;;;7.33;5.93;;;;;;;;;;4977946;28;20920;-80
2021/08/13 10:50:58;;;;;;;5.20;4.70;;;;;;;;;;4995375;28;20845;-80
2021/08/13 10:53:26;;;;;;;7.33;4.53;;;;;;;;;;4995232;28;20410;-80
2021/08/13 10:55:53;;;;;;;6.17;4.23;;;;;;;;;;4995375;28;20434;-79
2021/08/13 10:58:41;;;;;;;5.40;4.43;;;;;;;;;;4995270;28;20468;-79
2021/08/13 11:01:13;;;;;;;5.83;3.90;;;;;;;;;;4995147;28;20402;-80
2021/08/13 11:03:54;;;;;;;3.73;3.43;;;;;;;;;;4994927;28;20418;-80
2021/08/13 11:06:41;;;;;;;4.83;3.47;;;;;;;;;;4995064;28;20442;-80
2021/08/13 11:09:10;;;;;;;4.17;3.23;;;;;;;;;;4994762;28;20790;-80
2021/08/13 11:11:52;;;;;;;4.10;3.70;;;;;;;;;;4994939;28;20746;-79
2021/08/13 11:14:25;;;;;;;3.73;3.40;;;;;;;;;;4994758;28;20409;-81
2021/08/13 11:16:51;;;;;;;4.63;3.30;;;;;;;;;;4994982;28;20411;-79
2021/08/13 11:19:19;;;;;;;5.17;3.20;;;;;;;;;;4995009;28;20423;-79
2021/08/13 11:21:49;;;;;;;5.40;3.33;;;;;;;;;;4994995;28;20422;-80
2021/08/13 11:24:16;;;;;;;4.23;3.00;;;;;;;;;;4994468;28;20894;-80
2021/08/13 11:26:48;;;;;;;5.77;3.70;;;;;;;;;;4994081;28;20433;-78
2021/08/13 11:29:30;;;;;;;4.40;3.07;;;;;;;;;;4994678;28;20751;-78
2021/08/13 11:31:55;;;;;;;3.23;2.50;;;;;;;;;;4994787;28;20410;-77
2021/08/13 11:34:40;;;;;;;3.30;2.90;;;;;;;;;;4977066;28;20778;-77
2021/08/13 11:37:06;;;;;;;3.07;2.77;;;;;;;;;;4994208;28;20415;-77
2021/08/13 11:39:37;;;;;;;3.53;2.70;;;;;;;;;;4994336;28;20422;-78
2021/08/13 11:42:07;;;;;;;2.70;2.50;;;;;;;;;;4977107;28;20465;-78
2021/08/13 11:44:33;;;;;;;4.43;2.77;;;;;;;;;;4993984;28;20458;-77
2021/08/13 11:47:00;;;;;;;3.30;2.50;;;;;;;;;;4993984;28;20422;-77
2021/08/13 11:49:26;;;;;;;4.97;2.33;;;;;;;;;;4976623;28;20426;-78
2021/08/13 11:51:52;;;;;;;3.67;1.90;;;;;;;;;;4994322;28;20780;-78
2021/08/13 11:54:25;;;;;;;2.70;2.30;;;;;;;;;;4994078;28;20411;-78
2021/08/13 11:56:51;;;;;;;3.17;1.90;;;;;;;;;;4994210;28;20423;-77
2021/08/13 11:59:17;;;;;;;7.10;1.90;;;;;;;;;;4994308;28;20894;-78
2021/08/13 12:01:50;;;;;;;2.20;1.90;;;;;;;;;;4994252;28;20501;-78
2021/08/13 12:04:19;;;;;;;2.60;1.40;;;;;;;;;;4994225;28;20512;-78
2021/08/13 12:07:01;;;;;;;2.70;1.73;;;;;;;;;;4994307;28;20403;-78
2021/08/13 12:09:31;;;;;;;2.60;2.40;;;;;;;;;;4994158;28;20907;-78
2021/08/13 12:11:57;;;;;;;3.00;2.37;;;;;;;;;;4994311;28;20903;-77
2021/08/13 12:14:23;;;;;;;3.63;2.47;;;;;;;;;;4993795;28;20426;-78
2021/08/13 12:16:56;;;;;;;2.70;2.20;;;;;;;;;;4993874;28;20411;-77
2021/08/13 12:19:22;;;;;;;3.50;2.40;;;;;;;;;;4993874;28;20411;-77
2021/08/13 12:21:55;;;;;;;5.33;2.10;;;;;;;;;;4993863;28;20509;-77
2021/08/13 12:24:28;;;;;;;2.47;2.27;;;;;;;;;;4993421;28;20465;-78
2021/08/13 12:26:59;;;;;;;5.50;2.10;;;;;;;;;;4976596;28;20435;-78
2021/08/13 12:29:29;;;;;;;4.00;2.40;;;;;;;;;;4993731;28;20461;-77
2021/08/13 12:31:56;;;;;;;2.87;2.30;;;;;;;;;;4993917;28;20399;-77
2021/08/13 12:34:23;;;;;;;2.57;2.37;;;;;;;;;;4976038;28;20432;-78
2021/08/13 12:37:06;;;;;;;2.57;2.33;;;;;;;;;;4993836;28;20760;-78
2021/08/13 12:39:33;;;;;;;3.40;2.27;;;;;;;;;;4996515;28;20414;-77
2021/08/13 12:41:59;;;;;;;2.20;2.00;;;;;;;;;;4997938;28;20461;-78
2021/08/13 12:44:25;;;;;;;4.07;1.90;;;;;;;;;;4997288;28;20468;-78
2021/08/13 12:46:52;;;;;;;2.50;2.00;;;;;;;;;;4997679;28;20421;-77
2021/08/13 12:49:21;;;;;;;2.23;1.90;;;;;;;;;;4997753;28;20411;-77
2021/08/13 12:51:47;;;;;;;3.47;2.30;;;;;;;;;;4980110;28;20492;-77
2021/08/13 12:54:33;;;;;;;3.47;2.07;;;;;;;;;;4997298;28;20970;-77
2021/08/13 12:57:00;;;;;;;2.17;1.97;;;;;;;;;;4997694;28;20414;-78
2021/08/13 12:59:36;;;;;;;2.07;1.87;;;;;;;;;;4997567;28;20445;-77
2021/08/13 13:02:03;;;;;;;2.20;1.43;;;;;;;;;;4997443;28;20471;-78
2021/08/13 13:04:36;;;;;;;2.80;1.80;;;;;;;;;;4996908;28;20986;-78
2021/08/13 13:07:03;;;;;;;2.10;1.90;;;;;;;;;;4997425;28;20502;-77
2021/08/13 13:09:30;;;;;;;2.33;2.00;;;;;;;;;;4996714;28;20414;-77
2021/08/13 13:12:14;;;;;;;2.03;1.83;;;;;;;;;;4997150;28;20434;-77
2021/08/13 13:14:40;;;;;;;2.97;2.17;;;;;;;;;;4996738;28;20450;-77
2021/08/13 13:17:08;;;;;;;3.00;2.07;;;;;;;;;;4997284;28;20409;-78
2021/08/13 13:19:34;;;;;;;3.43;2.27;;;;;;;;;;4997319;28;20497;-78
2021/08/13 13:22:21;;;;;;;4.70;2.00;;;;;;;;;;4997148;28;20460;-78
2021/08/13 13:25:07;;;;;;;4.20;2.13;;;;;;;;;;4979188;28;21046;-77
2021/08/13 13:27:50;;;;;;;2.80;2.60;;;;;;;;;;4996818;28;20756;-78
2021/08/13 13:30:35;;;;;;;5.40;2.50;;;;;;;;;;4996939;28;20567;-77
2021/08/13 13:33:02;;;;;;;1.97;1.83;;;;;;;;;;4996414;28;20410;-77
2021/08/13 13:35:28;;;;;;;3.77;1.70;;;;;;;;;;4996664;28;20521;-77
2021/08/13 13:37:54;;;;;;;2.50;1.40;;;;;;;;;;4996947;28;20919;-78
2021/08/13 13:40:20;;;;;;;2.87;2.10;;;;;;;;;;4996699;28;20441;-77
2021/08/13 13:42:46;;;;;;;2.63;2.30;;;;;;;;;;4979058;28;20419;-77
2021/08/13 13:45:14;;;;;;;1.90;1.80;;;;;;;;;;4996488;28;20470;-77
2021/08/13 13:47:40;;;;;;;2.10;1.90;;;;;;;;;;4996493;28;20923;-78
2021/08/13 13:50:07;;;;;;;7.30;2.70;;;;;;;;;;4995529;28;20823;-77
2021/08/13 13:52:33;;;;;;;2.00;1.83;;;;;;;;;;4996440;28;20502;-78
2021/08/13 13:54:59;;;;;;;2.63;1.97;;;;;;;;;;4996182;28;21041;-77
2021/08/13 13:57:25;;;;;;;2.30;2.00;;;;;;;;;;4996149;28;20414;-78
2021/08/13 13:59:51;;;;;;;2.13;1.90;;;;;;;;;;4978614;28;20490;-77
2021/08/13 14:02:17;;;;;;;2.60;2.30;;;;;;;;;;4995740;28;20425;-78
2021/08/13 14:04:43;;;;;;;2.30;1.90;;;;;;;;;;4995523;28;20546;-77
2021/08/13 14:07:09;;;;;;;3.13;2.17;;;;;;;;;;4996219;28;20407;-77
2021/08/13 14:09:34;;;;;;;2.20;1.90;;;;;;;;;;4996311;28;20490;-77
2021/08/13 14:12:00;;;;;;;4.80;2.03;;;;;;;;;;4996118;28;20503;-78
2021/08/13 14:14:26;;;;;;;2.70;2.27;;;;;;;;;;4995650;28;20411;-76
2021/08/13 14:16:52;;;;;;;2.80;2.13;;;;;;;;;;4978744;28;20414;-77
2021/08/13 14:19:18;;;;;;;3.20;2.00;;;;;;;;;;4978202;28;20769;-77
2021/08/13 14:21:44;;;;;;;5.30;2.80;;;;;;;;;;4996043;28;20473;-76
2021/08/13 14:24:11;;;;;;;3.77;2.40;;;;;;;;;;4995541;28;20462;-77
2021/08/13 14:26:37;;;;;;;5.33;2.00;;;;;;;;;;4995790;28;20813;-77
2021/08/13 14:29:03;;;;;;;4.33;2.63;;;;;;;;;;4996021;28;20938;-77